sensor_id;sensor_type;location;lat;lon;timestamp;P1;durP1;ratioP1;P2;durP2;ratioP2
58260;SDS011;44058;52.898;6.502;2023-03-17T00:01:40;4.90;;;3.15;;
58260;SDS011;44058;52.898;6.502;2023-03-17T00:04:11;4.25;;;3.25;;
58260;SDS011;44058;52.898;6.502;2023-03-17T00:06:38;3.28;;;2.80;;
58260;SDS011;44058;52.898;6.502;2023-03-17T00:09:06;2.88;;;2.50;;
58260;SDS011;44058;52.898;6.502;2023-03-17T00:11:33;4.65;;;3.05;;
58260;SDS011;44058;52.898;6.502;2023-03-17T00:13:59;4.05;;;3.10;;
58260;SDS011;44058;52.898;6.502;2023-03-17T00:16:27;3.97;;;2.97;;
58260;SDS011;44058;52.898;6.502;2023-03-17T00:18:57;4.82;;;3.13;;
58260;SDS011;44058;52.898;6.502;2023-03-17T00:21:27;6.35;;;3.05;;
58260;SDS011;44058;52.898;6.502;2023-03-17T00:23:54;4.32;;;2.70;;
58260;SDS011;44058;52.898;6.502;2023-03-17T00:26:25;4.22;;;3.10;;
58260;SDS011;44058;52.898;6.502;2023-03-17T00:28:52;5.65;;;3.60;;
58260;SDS011;44058;52.898;6.502;2023-03-17T00:31:24;4.07;;;3.33;;
58260;SDS011;44058;52.898;6.502;2023-03-17T00:33:52;6.88;;;3.40;;
58260;SDS011;44058;52.898;6.502;2023-03-17T00:36:20;4.80;;;2.90;;
58260;SDS011;44058;52.898;6.502;2023-03-17T00:38:48;5.18;;;3.17;;
58260;SDS011;44058;52.898;6.502;2023-03-17T00:41:15;4.63;;;2.72;;
58260;SDS011;44058;52.898;6.502;2023-03-17T00:43:41;4.95;;;3.15;;
58260;SDS011;44058;52.898;6.502;2023-03-17T00:46:14;4.45;;;3.08;;
58260;SDS011;44058;52.898;6.502;2023-03-17T00:48:42;4.05;;;3.03;;
58260;SDS011;44058;52.898;6.502;2023-03-17T00:51:09;3.63;;;3.17;;
58260;SDS011;44058;52.898;6.502;2023-03-17T00:53:35;5.53;;;3.70;;
58260;SDS011;44058;52.898;6.502;2023-03-17T00:56:01;4.72;;;3.10;;
58260;SDS011;44058;52.898;6.502;2023-03-17T00:58:29;4.63;;;2.92;;
58260;SDS011;44058;52.898;6.502;2023-03-17T01:00:57;4.65;;;2.55;;
58260;SDS011;44058;52.898;6.502;2023-03-17T01:03:23;6.57;;;3.60;;
58260;SDS011;44058;52.898;6.502;2023-03-17T01:05:50;4.97;;;3.28;;
58260;SDS011;44058;52.898;6.502;2023-03-17T01:08:17;4.45;;;3.20;;
58260;SDS011;44058;52.898;6.502;2023-03-17T01:10:43;3.85;;;2.95;;
58260;SDS011;44058;52.898;6.502;2023-03-17T01:13:10;4.25;;;2.90;;
58260;SDS011;44058;52.898;6.502;2023-03-17T01:15:37;4.93;;;3.50;;
58260;SDS011;44058;52.898;6.502;2023-03-17T01:18:05;4.65;;;2.83;;
58260;SDS011;44058;52.898;6.502;2023-03-17T01:20:32;4.13;;;2.97;;
58260;SDS011;44058;52.898;6.502;2023-03-17T01:22:59;3.95;;;2.90;;
58260;SDS011;44058;52.898;6.502;2023-03-17T01:25:26;5.13;;;3.00;;
58260;SDS011;44058;52.898;6.502;2023-03-17T01:27:54;4.88;;;2.75;;
58260;SDS011;44058;52.898;6.502;2023-03-17T01:30:28;4.65;;;3.25;;
58260;SDS011;44058;52.898;6.502;2023-03-17T01:32:55;5.05;;;3.00;;
58260;SDS011;44058;52.898;6.502;2023-03-17T01:35:22;4.60;;;2.80;;
58260;SDS011;44058;52.898;6.502;2023-03-17T01:37:50;3.70;;;2.90;;
58260;SDS011;44058;52.898;6.502;2023-03-17T01:40:20;3.20;;;2.65;;
58260;SDS011;44058;52.898;6.502;2023-03-17T01:42:50;3.55;;;3.13;;
58260;SDS011;44058;52.898;6.502;2023-03-17T01:48:02;3.78;;;3.00;;
58260;SDS011;44058;52.898;6.502;2023-03-17T01:50:29;4.40;;;2.95;;
58260;SDS011;44058;52.898;6.502;2023-03-17T01:52:55;5.60;;;3.05;;
58260;SDS011;44058;52.898;6.502;2023-03-17T01:55:22;5.45;;;3.30;;
58260;SDS011;44058;52.898;6.502;2023-03-17T01:57:50;5.32;;;2.90;;
58260;SDS011;44058;52.898;6.502;2023-03-17T02:00:19;4.45;;;3.08;;
58260;SDS011;44058;52.898;6.502;2023-03-17T02:02:48;5.45;;;3.08;;
58260;SDS011;44058;52.898;6.502;2023-03-17T02:05:15;5.63;;;2.90;;
58260;SDS011;44058;52.898;6.502;2023-03-17T02:07:42;5.40;;;3.22;;
58260;SDS011;44058;52.898;6.502;2023-03-17T02:10:09;5.53;;;2.60;;
58260;SDS011;44058;52.898;6.502;2023-03-17T02:12:37;3.38;;;2.53;;
58260;SDS011;44058;52.898;6.502;2023-03-17T02:15:05;4.18;;;2.90;;
58260;SDS011;44058;52.898;6.502;2023-03-17T02:17:32;4.03;;;3.00;;
58260;SDS011;44058;52.898;6.502;2023-03-17T02:22:54;4.43;;;3.05;;
58260;SDS011;44058;52.898;6.502;2023-03-17T02:25:22;3.70;;;3.20;;
58260;SDS011;44058;52.898;6.502;2023-03-17T02:27:50;4.53;;;2.92;;
58260;SDS011;44058;52.898;6.502;2023-03-17T02:30:18;4.75;;;3.00;;
58260;SDS011;44058;52.898;6.502;2023-03-17T02:32:45;3.67;;;2.90;;
58260;SDS011;44058;52.898;6.502;2023-03-17T02:35:12;4.07;;;2.65;;
58260;SDS011;44058;52.898;6.502;2023-03-17T02:37:39;4.18;;;3.00;;
58260;SDS011;44058;52.898;6.502;2023-03-17T02:40:08;4.00;;;2.58;;
58260;SDS011;44058;52.898;6.502;2023-03-17T02:42:35;3.63;;;2.90;;
58260;SDS011;44058;52.898;6.502;2023-03-17T02:45:04;5.22;;;2.72;;
58260;SDS011;44058;52.898;6.502;2023-03-17T02:47:30;4.90;;;3.28;;
58260;SDS011;44058;52.898;6.502;2023-03-17T02:49:57;5.00;;;2.90;;
58260;SDS011;44058;52.898;6.502;2023-03-17T02:52:23;4.80;;;2.60;;
58260;SDS011;44058;52.898;6.502;2023-03-17T02:54:50;5.53;;;3.00;;
58260;SDS011;44058;52.898;6.502;2023-03-17T02:57:19;4.95;;;3.25;;
58260;SDS011;44058;52.898;6.502;2023-03-17T02:59:45;4.75;;;3.13;;
58260;SDS011;44058;52.898;6.502;2023-03-17T03:02:13;3.38;;;3.05;;
58260;SDS011;44058;52.898;6.502;2023-03-17T03:04:39;6.13;;;3.10;;
58260;SDS011;44058;52.898;6.502;2023-03-17T03:07:06;5.40;;;3.15;;
58260;SDS011;44058;52.898;6.502;2023-03-17T03:09:32;4.53;;;2.90;;
58260;SDS011;44058;52.898;6.502;2023-03-17T03:11:58;5.05;;;3.00;;
58260;SDS011;44058;52.898;6.502;2023-03-17T03:14:25;4.78;;;2.92;;
58260;SDS011;44058;52.898;6.502;2023-03-17T03:16:51;5.88;;;3.30;;
58260;SDS011;44058;52.898;6.502;2023-03-17T03:19:19;5.15;;;3.08;;
58260;SDS011;44058;52.898;6.502;2023-03-17T03:21:46;5.13;;;2.42;;
58260;SDS011;44058;52.898;6.502;2023-03-17T03:24:13;3.70;;;2.80;;
58260;SDS011;44058;52.898;6.502;2023-03-17T03:26:40;3.85;;;2.90;;
58260;SDS011;44058;52.898;6.502;2023-03-17T03:29:06;3.67;;;2.70;;
58260;SDS011;44058;52.898;6.502;2023-03-17T03:31:33;3.60;;;2.83;;
58260;SDS011;44058;52.898;6.502;2023-03-17T03:33:59;7.15;;;3.58;;
58260;SDS011;44058;52.898;6.502;2023-03-17T03:36:25;4.03;;;2.83;;
58260;SDS011;44058;52.898;6.502;2023-03-17T03:38:52;3.75;;;3.10;;
58260;SDS011;44058;52.898;6.502;2023-03-17T03:41:18;3.50;;;2.83;;
58260;SDS011;44058;52.898;6.502;2023-03-17T03:43:45;3.38;;;2.90;;
58260;SDS011;44058;52.898;6.502;2023-03-17T03:46:12;4.47;;;3.10;;
58260;SDS011;44058;52.898;6.502;2023-03-17T03:48:40;4.45;;;2.75;;
58260;SDS011;44058;52.898;6.502;2023-03-17T03:51:06;3.67;;;2.97;;
58260;SDS011;44058;52.898;6.502;2023-03-17T03:53:32;2.97;;;2.35;;
58260;SDS011;44058;52.898;6.502;2023-03-17T03:55:59;4.57;;;3.10;;
58260;SDS011;44058;52.898;6.502;2023-03-17T03:58:26;3.03;;;2.63;;
58260;SDS011;44058;52.898;6.502;2023-03-17T04:00:52;4.90;;;2.90;;
58260;SDS011;44058;52.898;6.502;2023-03-17T04:03:18;3.17;;;2.78;;
58260;SDS011;44058;52.898;6.502;2023-03-17T04:05:44;3.38;;;2.88;;
58260;SDS011;44058;52.898;6.502;2023-03-17T04:08:10;4.63;;;2.90;;
58260;SDS011;44058;52.898;6.502;2023-03-17T04:10:37;4.10;;;2.83;;
58260;SDS011;44058;52.898;6.502;2023-03-17T04:13:03;3.55;;;2.90;;
58260;SDS011;44058;52.898;6.502;2023-03-17T04:15:29;4.97;;;2.47;;
58260;SDS011;44058;52.898;6.502;2023-03-17T04:17:57;5.00;;;2.83;;
58260;SDS011;44058;52.898;6.502;2023-03-17T04:20:26;5.50;;;2.53;;
58260;SDS011;44058;52.898;6.502;2023-03-17T04:22:52;5.95;;;3.13;;
58260;SDS011;44058;52.898;6.502;2023-03-17T04:25:18;5.50;;;3.00;;
58260;SDS011;44058;52.898;6.502;2023-03-17T04:27:45;5.00;;;2.60;;
58260;SDS011;44058;52.898;6.502;2023-03-17T04:30:12;6.30;;;3.33;;
58260;SDS011;44058;52.898;6.502;2023-03-17T04:32:39;4.22;;;3.03;;
58260;SDS011;44058;52.898;6.502;2023-03-17T04:35:06;4.15;;;2.83;;
58260;SDS011;44058;52.898;6.502;2023-03-17T04:37:33;3.92;;;2.83;;
58260;SDS011;44058;52.898;6.502;2023-03-17T04:40:00;3.92;;;2.90;;
58260;SDS011;44058;52.898;6.502;2023-03-17T04:42:26;4.63;;;2.78;;
58260;SDS011;44058;52.898;6.502;2023-03-17T04:44:52;4.07;;;2.85;;
58260;SDS011;44058;52.898;6.502;2023-03-17T04:47:18;4.15;;;2.70;;
58260;SDS011;44058;52.898;6.502;2023-03-17T04:49:45;5.07;;;2.80;;
58260;SDS011;44058;52.898;6.502;2023-03-17T04:52:11;7.57;;;3.65;;
58260;SDS011;44058;52.898;6.502;2023-03-17T04:54:37;6.70;;;5.53;;
58260;SDS011;44058;52.898;6.502;2023-03-17T04:57:03;4.82;;;3.75;;
58260;SDS011;44058;52.898;6.502;2023-03-17T04:59:30;4.60;;;3.50;;
58260;SDS011;44058;52.898;6.502;2023-03-17T05:01:56;5.82;;;3.25;;
58260;SDS011;44058;52.898;6.502;2023-03-17T05:04:22;4.80;;;3.13;;
58260;SDS011;44058;52.898;6.502;2023-03-17T05:06:48;4.50;;;2.97;;
58260;SDS011;44058;52.898;6.502;2023-03-17T05:09:16;3.63;;;3.10;;
58260;SDS011;44058;52.898;6.502;2023-03-17T05:11:42;5.07;;;2.75;;
58260;SDS011;44058;52.898;6.502;2023-03-17T05:14:08;5.47;;;3.17;;
58260;SDS011;44058;52.898;6.502;2023-03-17T05:16:34;7.57;;;3.70;;
58260;SDS011;44058;52.898;6.502;2023-03-17T05:19:00;4.55;;;3.10;;
58260;SDS011;44058;52.898;6.502;2023-03-17T05:21:27;5.38;;;3.17;;
58260;SDS011;44058;52.898;6.502;2023-03-17T05:23:54;5.85;;;3.75;;
58260;SDS011;44058;52.898;6.502;2023-03-17T05:26:20;6.70;;;3.22;;
58260;SDS011;44058;52.898;6.502;2023-03-17T05:28:46;4.00;;;2.90;;
58260;SDS011;44058;52.898;6.502;2023-03-17T05:31:12;4.10;;;3.10;;
58260;SDS011;44058;52.898;6.502;2023-03-17T05:33:58;6.43;;;2.70;;
58260;SDS011;44058;52.898;6.502;2023-03-17T05:36:44;4.88;;;3.10;;
58260;SDS011;44058;52.898;6.502;2023-03-17T05:39:30;4.68;;;2.83;;
58260;SDS011;44058;52.898;6.502;2023-03-17T05:42:17;5.25;;;3.08;;
58260;SDS011;44058;52.898;6.502;2023-03-17T05:45:04;5.30;;;3.60;;
58260;SDS011;44058;52.898;6.502;2023-03-17T05:47:31;3.47;;;2.90;;
58260;SDS011;44058;52.898;6.502;2023-03-17T05:49:58;4.63;;;3.60;;
58260;SDS011;44058;52.898;6.502;2023-03-17T05:52:25;5.90;;;3.40;;
58260;SDS011;44058;52.898;6.502;2023-03-17T05:54:52;5.18;;;3.50;;
58260;SDS011;44058;52.898;6.502;2023-03-17T05:57:19;4.22;;;3.08;;
58260;SDS011;44058;52.898;6.502;2023-03-17T05:59:45;4.82;;;3.40;;
58260;SDS011;44058;52.898;6.502;2023-03-17T06:02:12;5.03;;;3.47;;
58260;SDS011;44058;52.898;6.502;2023-03-17T06:04:38;6.85;;;4.00;;
58260;SDS011;44058;52.898;6.502;2023-03-17T06:07:05;4.80;;;2.90;;
58260;SDS011;44058;52.898;6.502;2023-03-17T06:09:39;4.95;;;3.33;;
58260;SDS011;44058;52.898;6.502;2023-03-17T06:12:05;4.47;;;3.13;;
58260;SDS011;44058;52.898;6.502;2023-03-17T06:14:52;3.97;;;3.45;;
58260;SDS011;44058;52.898;6.502;2023-03-17T06:17:38;5.47;;;3.22;;
58260;SDS011;44058;52.898;6.502;2023-03-17T06:20:24;7.07;;;3.53;;
58260;SDS011;44058;52.898;6.502;2023-03-17T06:22:50;4.63;;;3.03;;
58260;SDS011;44058;52.898;6.502;2023-03-17T06:25:16;8.50;;;3.65;;
58260;SDS011;44058;52.898;6.502;2023-03-17T06:27:42;3.90;;;3.13;;
58260;SDS011;44058;52.898;6.502;2023-03-17T06:30:09;5.15;;;3.03;;
58260;SDS011;44058;52.898;6.502;2023-03-17T06:32:36;5.47;;;3.20;;
58260;SDS011;44058;52.898;6.502;2023-03-17T06:35:02;5.10;;;2.97;;
58260;SDS011;44058;52.898;6.502;2023-03-17T06:37:29;3.95;;;2.83;;
58260;SDS011;44058;52.898;6.502;2023-03-17T06:39:55;4.47;;;3.22;;
58260;SDS011;44058;52.898;6.502;2023-03-17T06:42:23;5.13;;;3.47;;
58260;SDS011;44058;52.898;6.502;2023-03-17T06:44:49;4.10;;;2.80;;
58260;SDS011;44058;52.898;6.502;2023-03-17T06:47:17;5.47;;;3.15;;
58260;SDS011;44058;52.898;6.502;2023-03-17T06:49:44;5.45;;;3.45;;
58260;SDS011;44058;52.898;6.502;2023-03-17T06:52:10;6.07;;;3.45;;
58260;SDS011;44058;52.898;6.502;2023-03-17T06:54:37;3.40;;;2.83;;
58260;SDS011;44058;52.898;6.502;2023-03-17T06:57:09;3.70;;;3.17;;
58260;SDS011;44058;52.898;6.502;2023-03-17T06:59:36;4.90;;;4.10;;
58260;SDS011;44058;52.898;6.502;2023-03-17T07:02:02;5.25;;;3.28;;
58260;SDS011;44058;52.898;6.502;2023-03-17T07:04:29;4.28;;;3.17;;
58260;SDS011;44058;52.898;6.502;2023-03-17T07:06:55;4.70;;;2.95;;
58260;SDS011;44058;52.898;6.502;2023-03-17T07:09:22;5.82;;;3.17;;
58260;SDS011;44058;52.898;6.502;2023-03-17T07:11:48;5.55;;;3.55;;
58260;SDS011;44058;52.898;6.502;2023-03-17T07:14:14;7.03;;;4.40;;
58260;SDS011;44058;52.898;6.502;2023-03-17T07:16:40;7.55;;;4.07;;
58260;SDS011;44058;52.898;6.502;2023-03-17T07:19:06;6.80;;;3.65;;
58260;SDS011;44058;52.898;6.502;2023-03-17T07:21:33;7.85;;;4.10;;
58260;SDS011;44058;52.898;6.502;2023-03-17T07:23:59;7.35;;;4.00;;
58260;SDS011;44058;52.898;6.502;2023-03-17T07:26:25;4.93;;;3.90;;
58260;SDS011;44058;52.898;6.502;2023-03-17T07:28:51;6.13;;;3.47;;
58260;SDS011;44058;52.898;6.502;2023-03-17T07:31:17;5.20;;;3.33;;
58260;SDS011;44058;52.898;6.502;2023-03-17T07:33:44;4.68;;;2.95;;
58260;SDS011;44058;52.898;6.502;2023-03-17T07:36:10;5.38;;;3.35;;
58260;SDS011;44058;52.898;6.502;2023-03-17T07:38:37;4.10;;;2.97;;
58260;SDS011;44058;52.898;6.502;2023-03-17T07:41:03;4.15;;;3.05;;
58260;SDS011;44058;52.898;6.502;2023-03-17T07:43:35;6.03;;;3.50;;
58260;SDS011;44058;52.898;6.502;2023-03-17T07:46:01;4.18;;;2.83;;
58260;SDS011;44058;52.898;6.502;2023-03-17T07:48:27;5.82;;;3.80;;
58260;SDS011;44058;52.898;6.502;2023-03-17T07:50:55;4.18;;;3.25;;
58260;SDS011;44058;52.898;6.502;2023-03-17T07:53:21;6.22;;;3.05;;
58260;SDS011;44058;52.898;6.502;2023-03-17T07:55:47;6.75;;;3.63;;
58260;SDS011;44058;52.898;6.502;2023-03-17T07:58:13;6.50;;;3.00;;
58260;SDS011;44058;52.898;6.502;2023-03-17T08:00:40;4.88;;;3.30;;
58260;SDS011;44058;52.898;6.502;2023-03-17T08:03:06;4.65;;;3.28;;
58260;SDS011;44058;52.898;6.502;2023-03-17T08:05:33;5.18;;;3.13;;
58260;SDS011;44058;52.898;6.502;2023-03-17T08:07:59;4.93;;;3.60;;
58260;SDS011;44058;52.898;6.502;2023-03-17T08:10:25;7.63;;;3.28;;
58260;SDS011;44058;52.898;6.502;2023-03-17T08:12:51;4.43;;;3.50;;
58260;SDS011;44058;52.898;6.502;2023-03-17T08:15:18;4.68;;;3.30;;
58260;SDS011;44058;52.898;6.502;2023-03-17T08:17:44;8.77;;;3.60;;
58260;SDS011;44058;52.898;6.502;2023-03-17T08:20:10;7.22;;;3.42;;
58260;SDS011;44058;52.898;6.502;2023-03-17T08:22:36;5.78;;;3.58;;
58260;SDS011;44058;52.898;6.502;2023-03-17T08:25:03;5.22;;;3.30;;
58260;SDS011;44058;52.898;6.502;2023-03-17T08:27:29;4.70;;;3.55;;
58260;SDS011;44058;52.898;6.502;2023-03-17T08:29:55;5.72;;;3.58;;
58260;SDS011;44058;52.898;6.502;2023-03-17T08:32:21;4.38;;;3.40;;
58260;SDS011;44058;52.898;6.502;2023-03-17T08:34:51;5.22;;;3.55;;
58260;SDS011;44058;52.898;6.502;2023-03-17T08:37:17;3.42;;;2.90;;
58260;SDS011;44058;52.898;6.502;2023-03-17T08:39:43;7.13;;;3.80;;
58260;SDS011;44058;52.898;6.502;2023-03-17T08:42:12;5.50;;;3.13;;
58260;SDS011;44058;52.898;6.502;2023-03-17T08:44:39;7.05;;;3.72;;
58260;SDS011;44058;52.898;6.502;2023-03-17T08:47:06;5.90;;;3.72;;
58260;SDS011;44058;52.898;6.502;2023-03-17T08:49:32;6.32;;;3.58;;
58260;SDS011;44058;52.898;6.502;2023-03-17T08:52:00;6.32;;;3.40;;
58260;SDS011;44058;52.898;6.502;2023-03-17T08:54:27;5.30;;;3.60;;
58260;SDS011;44058;52.898;6.502;2023-03-17T08:56:53;5.28;;;3.40;;
58260;SDS011;44058;52.898;6.502;2023-03-17T08:59:19;5.45;;;3.83;;
58260;SDS011;44058;52.898;6.502;2023-03-17T09:01:45;4.45;;;2.78;;
58260;SDS011;44058;52.898;6.502;2023-03-17T09:04:11;6.63;;;3.40;;
58260;SDS011;44058;52.898;6.502;2023-03-17T09:06:37;6.22;;;3.15;;
58260;SDS011;44058;52.898;6.502;2023-03-17T09:09:03;6.22;;;3.55;;
58260;SDS011;44058;52.898;6.502;2023-03-17T09:11:30;4.85;;;2.88;;
58260;SDS011;44058;52.898;6.502;2023-03-17T09:13:57;4.25;;;2.70;;
58260;SDS011;44058;52.898;6.502;2023-03-17T09:16:24;3.35;;;2.83;;
58260;SDS011;44058;52.898;6.502;2023-03-17T09:18:51;4.70;;;3.30;;
58260;SDS011;44058;52.898;6.502;2023-03-17T09:21:17;5.03;;;3.22;;
58260;SDS011;44058;52.898;6.502;2023-03-17T09:23:43;3.88;;;3.15;;
58260;SDS011;44058;52.898;6.502;2023-03-17T09:26:10;4.68;;;2.90;;
58260;SDS011;44058;52.898;6.502;2023-03-17T09:28:37;9.45;;;3.42;;
58260;SDS011;44058;52.898;6.502;2023-03-17T09:31:04;3.17;;;2.85;;
58260;SDS011;44058;52.898;6.502;2023-03-17T09:33:31;4.95;;;3.15;;
58260;SDS011;44058;52.898;6.502;2023-03-17T09:35:57;3.15;;;2.85;;
58260;SDS011;44058;52.898;6.502;2023-03-17T09:38:24;5.00;;;3.03;;
58260;SDS011;44058;52.898;6.502;2023-03-17T09:40:56;5.28;;;2.85;;
58260;SDS011;44058;52.898;6.502;2023-03-17T09:43:30;3.72;;;2.67;;
58260;SDS011;44058;52.898;6.502;2023-03-17T09:48:52;4.45;;;2.85;;
58260;SDS011;44058;52.898;6.502;2023-03-17T09:51:21;6.35;;;3.15;;
58260;SDS011;44058;52.898;6.502;2023-03-17T09:53:49;3.67;;;3.10;;
58260;SDS011;44058;52.898;6.502;2023-03-17T09:56:17;6.47;;;3.28;;
58260;SDS011;44058;52.898;6.502;2023-03-17T09:58:46;5.47;;;3.40;;
58260;SDS011;44058;52.898;6.502;2023-03-17T10:01:14;4.10;;;2.72;;
58260;SDS011;44058;52.898;6.502;2023-03-17T10:03:40;4.05;;;2.90;;
58260;SDS011;44058;52.898;6.502;2023-03-17T10:06:12;4.03;;;2.90;;
58260;SDS011;44058;52.898;6.502;2023-03-17T10:08:43;8.02;;;3.33;;
58260;SDS011;44058;52.898;6.502;2023-03-17T10:11:21;5.10;;;3.50;;
58260;SDS011;44058;52.898;6.502;2023-03-17T10:13:59;4.68;;;3.60;;
58260;SDS011;44058;52.898;6.502;2023-03-17T10:19:00;5.20;;;3.60;;
58260;SDS011;44058;52.898;6.502;2023-03-17T10:21:30;6.60;;;3.78;;
58260;SDS011;44058;52.898;6.502;2023-03-17T10:23:56;5.53;;;3.83;;
58260;SDS011;44058;52.898;6.502;2023-03-17T10:26:39;4.57;;;3.40;;
58260;SDS011;44058;52.898;6.502;2023-03-17T10:29:13;5.05;;;3.33;;
58260;SDS011;44058;52.898;6.502;2023-03-17T10:31:39;6.28;;;3.50;;
58260;SDS011;44058;52.898;6.502;2023-03-17T10:34:22;4.43;;;3.63;;
58260;SDS011;44058;52.898;6.502;2023-03-17T10:36:52;6.05;;;3.85;;
58260;SDS011;44058;52.898;6.502;2023-03-17T10:39:19;4.20;;;3.38;;
58260;SDS011;44058;52.898;6.502;2023-03-17T10:47:00;9.82;;;3.80;;
58260;SDS011;44058;52.898;6.502;2023-03-17T10:49:26;6.53;;;3.88;;
58260;SDS011;44058;52.898;6.502;2023-03-17T10:51:56;7.70;;;3.60;;
58260;SDS011;44058;52.898;6.502;2023-03-17T10:54:23;4.28;;;3.72;;
58260;SDS011;44058;52.898;6.502;2023-03-17T10:56:54;7.75;;;3.83;;
58260;SDS011;44058;52.898;6.502;2023-03-17T10:59:27;4.68;;;3.83;;
58260;SDS011;44058;52.898;6.502;2023-03-17T11:01:58;6.43;;;3.25;;
58260;SDS011;44058;52.898;6.502;2023-03-17T11:06:53;5.05;;;3.70;;
58260;SDS011;44058;52.898;6.502;2023-03-17T11:09:19;5.60;;;4.10;;
58260;SDS011;44058;52.898;6.502;2023-03-17T11:11:47;4.95;;;3.78;;
58260;SDS011;44058;52.898;6.502;2023-03-17T11:14:14;6.30;;;3.97;;
58260;SDS011;44058;52.898;6.502;2023-03-17T11:16:59;5.25;;;4.10;;
58260;SDS011;44058;52.898;6.502;2023-03-17T11:19:32;7.03;;;4.03;;
58260;SDS011;44058;52.898;6.502;2023-03-17T11:22:04;6.10;;;3.75;;
58260;SDS011;44058;52.898;6.502;2023-03-17T11:24:33;7.38;;;4.35;;
58260;SDS011;44058;52.898;6.502;2023-03-17T11:27:11;5.78;;;3.70;;
58260;SDS011;44058;52.898;6.502;2023-03-17T11:32:19;5.13;;;3.80;;
58260;SDS011;44058;52.898;6.502;2023-03-17T11:34:55;4.90;;;3.70;;
58260;SDS011;44058;52.898;6.502;2023-03-17T11:37:32;5.50;;;3.80;;
58260;SDS011;44058;52.898;6.502;2023-03-17T11:42:37;4.70;;;3.92;;
58260;SDS011;44058;52.898;6.502;2023-03-17T11:45:26;5.35;;;4.00;;
58260;SDS011;44058;52.898;6.502;2023-03-17T11:48:04;7.00;;;4.10;;
58260;SDS011;44058;52.898;6.502;2023-03-17T11:50:39;8.02;;;4.78;;
58260;SDS011;44058;52.898;6.502;2023-03-17T11:53:15;7.70;;;4.32;;
58260;SDS011;44058;52.898;6.502;2023-03-17T11:56:05;4.35;;;3.95;;
58260;SDS011;44058;52.898;6.502;2023-03-17T11:58:35;8.57;;;4.45;;
58260;SDS011;44058;52.898;6.502;2023-03-17T12:01:07;6.68;;;4.13;;
58260;SDS011;44058;52.898;6.502;2023-03-17T12:06:03;4.72;;;3.83;;
58260;SDS011;44058;52.898;6.502;2023-03-17T12:11:13;4.60;;;4.10;;
58260;SDS011;44058;52.898;6.502;2023-03-17T12:13:48;6.47;;;4.40;;
58260;SDS011;44058;52.898;6.502;2023-03-17T12:16:19;6.60;;;4.13;;
58260;SDS011;44058;52.898;6.502;2023-03-17T12:24:17;7.47;;;4.13;;
58260;SDS011;44058;52.898;6.502;2023-03-17T12:29:43;10.23;;;4.35;;
58260;SDS011;44058;52.898;6.502;2023-03-17T12:32:17;7.82;;;4.20;;
58260;SDS011;44058;52.898;6.502;2023-03-17T12:34:59;8.20;;;5.00;;
58260;SDS011;44058;52.898;6.502;2023-03-17T12:37:27;7.75;;;4.35;;
58260;SDS011;44058;52.898;6.502;2023-03-17T12:40:02;5.93;;;4.60;;
58260;SDS011;44058;52.898;6.502;2023-03-17T12:42:41;5.43;;;4.50;;
58260;SDS011;44058;52.898;6.502;2023-03-17T12:53:07;5.18;;;4.25;;
58260;SDS011;44058;52.898;6.502;2023-03-17T12:55:36;8.90;;;4.78;;
58260;SDS011;44058;52.898;6.502;2023-03-17T12:58:04;10.40;;;4.47;;
58260;SDS011;44058;52.898;6.502;2023-03-17T13:00:33;5.90;;;4.68;;
58260;SDS011;44058;52.898;6.502;2023-03-17T13:03:15;4.43;;;4.00;;
58260;SDS011;44058;52.898;6.502;2023-03-17T13:05:44;5.07;;;4.18;;
58260;SDS011;44058;52.898;6.502;2023-03-17T13:08:10;5.20;;;4.18;;
58260;SDS011;44058;52.898;6.502;2023-03-17T13:10:41;7.63;;;5.20;;
58260;SDS011;44058;52.898;6.502;2023-03-17T13:20:51;6.85;;;4.47;;
58260;SDS011;44058;52.898;6.502;2023-03-17T13:23:32;5.65;;;4.53;;
58260;SDS011;44058;52.898;6.502;2023-03-17T13:25:58;5.25;;;4.68;;
58260;SDS011;44058;52.898;6.502;2023-03-17T13:28:46;6.63;;;5.00;;
58260;SDS011;44058;52.898;6.502;2023-03-17T13:33:57;5.97;;;4.82;;
58260;SDS011;44058;52.898;6.502;2023-03-17T13:36:30;5.20;;;4.47;;
58260;SDS011;44058;52.898;6.502;2023-03-17T13:47:07;6.22;;;4.97;;
58260;SDS011;44058;52.898;6.502;2023-03-17T13:49:36;6.68;;;4.53;;
58260;SDS011;44058;52.898;6.502;2023-03-17T13:52:06;6.70;;;4.90;;
58260;SDS011;44058;52.898;6.502;2023-03-17T13:54:49;7.10;;;5.00;;
58260;SDS011;44058;52.898;6.502;2023-03-17T13:59:54;6.75;;;4.95;;
58260;SDS011;44058;52.898;6.502;2023-03-17T14:02:21;8.20;;;5.18;;
58260;SDS011;44058;52.898;6.502;2023-03-17T14:05:02;7.00;;;4.75;;
58260;SDS011;44058;52.898;6.502;2023-03-17T14:07:32;6.30;;;5.15;;
58260;SDS011;44058;52.898;6.502;2023-03-17T14:10:04;5.75;;;4.60;;
58260;SDS011;44058;52.898;6.502;2023-03-17T14:12:51;6.60;;;4.72;;
58260;SDS011;44058;52.898;6.502;2023-03-17T14:17:47;7.03;;;5.28;;
58260;SDS011;44058;52.898;6.502;2023-03-17T14:22:43;10.93;;;5.07;;
58260;SDS011;44058;52.898;6.502;2023-03-17T14:25:18;5.93;;;4.88;;
58260;SDS011;44058;52.898;6.502;2023-03-17T14:27:44;7.15;;;4.78;;
58260;SDS011;44058;52.898;6.502;2023-03-17T14:30:16;7.07;;;5.18;;
58260;SDS011;44058;52.898;6.502;2023-03-17T14:32:50;8.00;;;5.18;;
58260;SDS011;44058;52.898;6.502;2023-03-17T14:35:16;7.45;;;4.95;;
58260;SDS011;44058;52.898;6.502;2023-03-17T14:37:43;7.68;;;5.70;;
58260;SDS011;44058;52.898;6.502;2023-03-17T14:40:25;8.13;;;5.47;;
58260;SDS011;44058;52.898;6.502;2023-03-17T14:42:52;8.27;;;4.95;;
58260;SDS011;44058;52.898;6.502;2023-03-17T14:45:19;9.90;;;6.30;;
58260;SDS011;44058;52.898;6.502;2023-03-17T14:47:46;8.95;;;4.93;;
58260;SDS011;44058;52.898;6.502;2023-03-17T14:50:16;7.43;;;5.13;;
58260;SDS011;44058;52.898;6.502;2023-03-17T14:52:43;5.95;;;5.35;;
58260;SDS011;44058;52.898;6.502;2023-03-17T14:55:11;5.72;;;4.82;;
58260;SDS011;44058;52.898;6.502;2023-03-17T14:57:38;6.63;;;5.32;;
58260;SDS011;44058;52.898;6.502;2023-03-17T15:03:01;6.13;;;4.97;;
58260;SDS011;44058;52.898;6.502;2023-03-17T15:05:36;6.43;;;5.43;;
58260;SDS011;44058;52.898;6.502;2023-03-17T15:08:26;6.88;;;5.70;;
58260;SDS011;44058;52.898;6.502;2023-03-17T15:10:48;7.30;;;4.78;;
58260;SDS011;44058;52.898;6.502;2023-03-17T15:13:14;9.13;;;5.32;;
58260;SDS011;44058;52.898;6.502;2023-03-17T15:15:40;10.13;;;5.75;;
58260;SDS011;44058;52.898;6.502;2023-03-17T15:18:12;6.35;;;5.13;;
58260;SDS011;44058;52.898;6.502;2023-03-17T15:20:40;11.90;;;8.07;;
58260;SDS011;44058;52.898;6.502;2023-03-17T15:23:14;7.80;;;6.07;;
58260;SDS011;44058;52.898;6.502;2023-03-17T15:25:44;7.43;;;5.97;;
58260;SDS011;44058;52.898;6.502;2023-03-17T15:28:11;9.73;;;5.55;;
58260;SDS011;44058;52.898;6.502;2023-03-17T15:30:38;16.90;;;11.80;;
58260;SDS011;44058;52.898;6.502;2023-03-17T15:33:16;12.75;;;6.28;;
58260;SDS011;44058;52.898;6.502;2023-03-17T15:35:42;8.00;;;5.55;;
58260;SDS011;44058;52.898;6.502;2023-03-17T15:38:09;7.45;;;5.60;;
58260;SDS011;44058;52.898;6.502;2023-03-17T15:40:36;7.25;;;5.80;;
58260;SDS011;44058;52.898;6.502;2023-03-17T15:43:02;7.72;;;4.97;;
58260;SDS011;44058;52.898;6.502;2023-03-17T15:45:28;11.45;;;6.30;;
58260;SDS011;44058;52.898;6.502;2023-03-17T15:47:54;7.68;;;6.10;;
58260;SDS011;44058;52.898;6.502;2023-03-17T15:52:49;7.40;;;6.07;;
58260;SDS011;44058;52.898;6.502;2023-03-17T15:55:24;8.00;;;6.15;;
58260;SDS011;44058;52.898;6.502;2023-03-17T15:57:53;10.57;;;6.80;;
58260;SDS011;44058;52.898;6.502;2023-03-17T16:00:20;7.45;;;6.10;;
58260;SDS011;44058;52.898;6.502;2023-03-17T16:02:48;7.93;;;5.30;;
58260;SDS011;44058;52.898;6.502;2023-03-17T16:05:19;7.38;;;5.35;;
58260;SDS011;44058;52.898;6.502;2023-03-17T16:07:46;9.90;;;5.85;;
58260;SDS011;44058;52.898;6.502;2023-03-17T16:10:19;9.07;;;5.75;;
58260;SDS011;44058;52.898;6.502;2023-03-17T16:12:46;8.85;;;5.80;;
58260;SDS011;44058;52.898;6.502;2023-03-17T16:15:16;8.80;;;5.82;;